Time;durP1;ratioP1;P1;durP2;ratioP2;P2;SDS_P1;SDS_P2;PMS_P1;PMS_P2;Temp;Humidity;BMP_temperature;BMP_pressure;BME280_temperature;BME280_humidity;BME280_pressure;Samples;Min_cycle;Max_cycle;Signal;HPM_P1;HPM_P2
2022/12/13 00:00:18;;;;;;;;;;;;;;;;;;4976354;28;19914;-24
2022/12/13 00:02:44;;;;;;;;;;;;;;;;;;4958750;28;19928;-24
2022/12/13 00:05:10;;;;;;;;;;;;;;;;;;4976250;28;20349;-24
2022/12/13 00:07:36;;;;;;;;;;;;;;;;;;4976244;28;19914;-24
2022/12/13 00:10:02;;;;;;;;;;;;;;;;;;4976282;28;19937;-24
2022/12/13 00:12:28;;;;;;;;;;;;;;;;;;4976062;28;20365;-24
2022/12/13 00:14:54;;;;;;;;;;;;;;;;;;4975901;28;19922;-24
2022/12/13 00:17:20;;;;;;;;;;;;;;;;;;4975903;28;19914;-24
2022/12/13 00:19:46;;;;;;;;;;;;;;;;;;4975900;28;20427;-24
2022/12/13 00:22:12;;;;;;;;;;;;;;;;;;4975827;28;19949;-24
2022/12/13 00:24:38;;;;;;;;;;;;;;;;;;4958866;28;20342;-23
2022/12/13 00:27:04;;;;;;;;;;;;;;;;;;4975891;28;19918;-23
2022/12/13 00:29:30;;;;;;;;;;;;;;;;;;4976117;28;20258;-23
2022/12/13 00:31:56;;;;;;;;;;;;;;;;;;4975751;28;19910;-24
2022/12/13 00:34:22;;;;;;;;;;;;;;;;;;4975763;28;19918;-24
2022/12/13 00:36:48;;;;;;;;;;;;;;;;;;4976070;28;19914;-23
2022/12/13 00:39:15;;;;;;;;;;;;;;;;;;4975765;28;19946;-23
2022/12/13 00:41:42;;;;;;;;;;;;;;;;;;4975714;28;19998;-23
2022/12/13 00:44:08;;;;;;;;;;;;;;;;;;4975874;28;19926;-24
2022/12/13 00:46:34;;;;;;;;;;;;;;;;;;4975910;28;20238;-23
2022/12/13 00:49:00;;;;;;;;;;;;;;;;;;4975647;28;19961;-24
2022/12/13 00:51:26;;;;;;;;;;;;;;;;;;4975608;28;19918;-24
2022/12/13 00:53:52;;;;;;;;;;;;;;;;;;4975535;28;20009;-24
2022/12/13 00:56:20;;;;;;;;;;;;;;;;;;4975633;28;19964;-23
2022/12/13 00:58:46;;;;;;;;;;;;;;;;;;4975789;28;19922;-23
2022/12/13 01:01:12;;;;;;;;;;;;;;;;;;4975526;28;19954;-24
2022/12/13 01:03:38;;;;;;;;;;;;;;;;;;4975244;28;19922;-23
2022/12/13 01:06:04;;;;;;;;;;;;;;;;;;4975530;28;19918;-23
2022/12/13 01:08:30;;;;;;;;;;;;;;;;;;4975531;28;20038;-24
2022/12/13 01:10:56;;;;;;;;;;;;;;;;;;4975728;28;20382;-24
2022/12/13 01:13:22;;;;;;;;;;;;;;;;;;4975621;28;19918;-24
2022/12/13 01:15:48;;;;;;;;;;;;;;;;;;4975409;28;19925;-23
2022/12/13 01:18:17;;;;;;;;;;;;;;;;;;4977388;28;19925;-24
2022/12/13 01:20:43;;;;;;;;;;;;;;;;;;4978843;28;19920;-24
2022/12/13 01:23:09;;;;;;;;;;;;;;;;;;4978743;28;19945;-24
2022/12/13 01:25:35;;;;;;;;;;;;;;;;;;4978711;28;19921;-24
2022/12/13 01:28:01;;;;;;;;;;;;;;;;;;4978701;28;20342;-24
2022/12/13 01:30:27;;;;;;;;;;;;;;;;;;4978626;28;19914;-24
2022/12/13 01:32:53;;;;;;;;;;;;;;;;;;4978581;28;19917;-23
2022/12/13 01:35:19;;;;;;;;;;;;;;;;;;4978468;28;19964;-24
2022/12/13 01:37:45;;;;;;;;;;;;;;;;;;4978861;28;19914;-24
2022/12/13 01:40:11;;;;;;;;;;;;;;;;;;4978508;28;19929;-24
2022/12/13 01:42:37;;;;;;;;;;;;;;;;;;4978393;28;19910;-23
2022/12/13 01:45:03;;;;;;;;;;;;;;;;;;4978393;28;19914;-24
2022/12/13 01:47:29;;;;;;;;;;;;;;;;;;4978457;28;19914;-24
2022/12/13 01:49:55;;;;;;;;;;;;;;;;;;4978353;28;19918;-23
2022/12/13 01:52:21;;;;;;;;;;;;;;;;;;4978260;28;19910;-23
2022/12/13 01:54:47;;;;;;;;;;;;;;;;;;4978125;28;19918;-24
2022/12/13 01:57:13;;;;;;;;;;;;;;;;;;4978173;28;19921;-24
2022/12/13 01:59:39;;;;;;;;;;;;;;;;;;4978120;28;19979;-24
2022/12/13 02:02:05;;;;;;;;;;;;;;;;;;4961027;28;19914;-24
2022/12/13 02:04:31;;;;;;;;;;;;;;;;;;4977631;28;20349;-24
2022/12/13 02:06:57;;;;;;;;;;;;;;;;;;4978035;28;19925;-24
2022/12/13 02:09:23;;;;;;;;;;;;;;;;;;4977984;28;19919;-24
2022/12/13 02:11:49;;;;;;;;;;;;;;;;;;4977824;28;19916;-24
2022/12/13 02:14:15;;;;;;;;;;;;;;;;;;4977826;28;19954;-24
2022/12/13 02:16:41;;;;;;;;;;;;;;;;;;4978061;28;20337;-24
2022/12/13 02:19:07;;;;;;;;;;;;;;;;;;4977846;28;19914;-24
2022/12/13 02:21:33;;;;;;;;;;;;;;;;;;4960750;28;19976;-23
2022/12/13 02:23:59;;;;;;;;;;;;;;;;;;4977741;28;20265;-23
2022/12/13 02:26:25;;;;;;;;;;;;;;;;;;4977894;28;20277;-24
2022/12/13 02:28:51;;;;;;;;;;;;;;;;;;4976546;28;19968;-24
2022/12/13 02:31:17;;;;;;;;;;;;;;;;;;4977532;28;20372;-24
2022/12/13 02:33:43;;;;;;;;;;;;;;;;;;4977430;28;19918;-23
2022/12/13 02:36:09;;;;;;;;;;;;;;;;;;4977424;28;19921;-24
2022/12/13 02:38:35;;;;;;;;;;;;;;;;;;4977429;28;19910;-24
2022/12/13 02:41:01;;;;;;;;;;;;;;;;;;4977418;28;20258;-24
2022/12/13 02:43:28;;;;;;;;;;;;;;;;;;4977262;28;19914;-23
2022/12/13 02:45:54;;;;;;;;;;;;;;;;;;4977507;28;20330;-24
2022/12/13 02:48:20;;;;;;;;;;;;;;;;;;4977300;28;20233;-23
2022/12/13 02:50:46;;;;;;;;;;;;;;;;;;4960090;28;20338;-24
2022/12/13 02:53:12;;;;;;;;;;;;;;;;;;4960019;28;20353;-24
2022/12/13 02:55:38;;;;;;;;;;;;;;;;;;4977295;28;19925;-24
2022/12/13 02:58:05;;;;;;;;;;;;;;;;;;4960064;28;20265;-23
2022/12/13 03:00:31;;;;;;;;;;;;;;;;;;4977294;28;19960;-24
2022/12/13 03:02:57;;;;;;;;;;;;;;;;;;4977165;28;19910;-24
2022/12/13 03:08:08;;;;;;;;;;;;;;;;;;4976969;28;19976;-24
2022/12/13 03:10:34;;;;;;;;;;;;;;;;;;4976755;28;19998;-24
2022/12/13 03:15:45;;;;;;;;;;;;;;;;;;4976849;28;19925;-24
2022/12/13 03:18:14;;;;;;;;;;;;;;;;;;4977025;28;19989;-24
2022/12/13 03:20:40;;;;;;;;;;;;;;;;;;4976684;28;20357;-23
2022/12/13 03:23:06;;;;;;;;;;;;;;;;;;4976688;28;19968;-24
2022/12/13 03:25:32;;;;;;;;;;;;;;;;;;4976577;28;20268;-24
2022/12/13 03:27:58;;;;;;;;;;;;;;;;;;4976601;28;20004;-24
2022/12/13 03:30:24;;;;;;;;;;;;;;;;;;4976535;28;19914;-24
2022/12/13 03:32:50;;;;;;;;;;;;;;;;;;4976446;28;20361;-24
2022/12/13 03:35:16;;;;;;;;;;;;;;;;;;4976614;28;19918;-24
2022/12/13 03:37:42;;;;;;;;;;;;;;;;;;4976349;28;19911;-24
2022/12/13 03:40:08;;;;;;;;;;;;;;;;;;4976306;28;20040;-24
2022/12/13 03:42:34;;;;;;;;;;;;;;;;;;4976270;28;19964;-24
2022/12/13 03:45:00;;;;;;;;;;;;;;;;;;4976613;28;19992;-24
2022/12/13 03:47:26;;;;;;;;;;;;;;;;;;4976250;28;19914;-23
2022/12/13 03:49:52;;;;;;;;;;;;;;;;;;4976296;28;19910;-24
2022/12/13 03:52:19;;;;;;;;;;;;;;;;;;4976355;28;19949;-23
2022/12/13 03:54:45;;;;;;;;;;;;;;;;;;4976201;28;19926;-24
2022/12/13 03:57:11;;;;;;;;;;;;;;;;;;4976142;28;19918;-23
2022/12/13 03:59:37;;;;;;;;;;;;;;;;;;4976088;28;19914;-24
2022/12/13 04:02:03;;;;;;;;;;;;;;;;;;4976018;28;19918;-24
2022/12/13 04:04:30;;;;;;;;;;;;;;;;;;4975835;28;19958;-23
2022/12/13 04:06:56;;;;;;;;;;;;;;;;;;4976281;28;19914;-24
2022/12/13 04:09:22;;;;;;;;;;;;;;;;;;4976271;28;20304;-24
2022/12/13 04:14:32;;;;;;;;;;;;;;;;;;4975945;28;19921;-24
2022/12/13 04:16:58;;;;;;;;;;;;;;;;;;4975937;28;20361;-24
2022/12/13 04:19:24;;;;;;;;;;;;;;;;;;4958738;28;19914;-24
2022/12/13 04:21:50;;;;;;;;;;;;;;;;;;4976047;28;19965;-24
2022/12/13 04:24:17;;;;;;;;;;;;;;;;;;4958863;28;20408;-24
2022/12/13 04:26:42;;;;;;;;;;;;;;;;;;4976067;28;19933;-24
2022/12/13 04:29:08;;;;;;;;;;;;;;;;;;4976162;28;19910;-23
2022/12/13 04:31:34;;;;;;;;;;;;;;;;;;4958876;28;20235;-24
2022/12/13 04:34:00;;;;;;;;;;;;;;;;;;4958597;28;19918;-24
2022/12/13 04:36:26;;;;;;;;;;;;;;;;;;4975729;28;19914;-24
2022/12/13 04:38:52;;;;;;;;;;;;;;;;;;4958655;28;19922;-24
2022/12/13 04:41:18;;;;;;;;;;;;;;;;;;4975574;28;19916;-24
2022/12/13 04:43:44;;;;;;;;;;;;;;;;;;4975512;28;19910;-24
2022/12/13 04:46:10;;;;;;;;;;;;;;;;;;4975459;28;19925;-24
2022/12/13 04:48:36;;;;;;;;;;;;;;;;;;4975644;28;20342;-24
2022/12/13 04:51:02;;;;;;;;;;;;;;;;;;4975392;28;19914;-23
2022/12/13 04:53:28;;;;;;;;;;;;;;;;;;4977680;28;20238;-24
2022/12/13 04:55:55;;;;;;;;;;;;;;;;;;4979284;28;19914;-24
2022/12/13 04:58:21;;;;;;;;;;;;;;;;;;4978895;28;19926;-24
2022/12/13 05:00:47;;;;;;;;;;;;;;;;;;4978939;28;19921;-24
2022/12/13 05:03:13;;;;;;;;;;;;;;;;;;4978744;28;19921;-24
2022/12/13 05:05:39;;;;;;;;;;;;;;;;;;4979050;28;19914;-24
2022/12/13 05:08:05;;;;;;;;;;;;;;;;;;4978827;28;19997;-24
2022/12/13 05:10:31;;;;;;;;;;;;;;;;;;4961722;28;20411;-24
2022/12/13 05:12:57;;;;;;;;;;;;;;;;;;4978711;28;19914;-24
2022/12/13 05:15:23;;;;;;;;;;;;;;;;;;4978650;28;19929;-24
2022/12/13 05:17:49;;;;;;;;;;;;;;;;;;4978516;28;20223;-24
2022/12/13 05:20:15;;;;;;;;;;;;;;;;;;4978839;28;20355;-24
2022/12/13 05:22:41;;;;;;;;;;;;;;;;;;4961382;28;19914;-24
2022/12/13 05:25:07;;;;;;;;;;;;;;;;;;4978855;28;19914;-24
2022/12/13 05:27:33;;;;;;;;;;;;;;;;;;4978575;28;19914;-24
2022/12/13 05:29:59;;;;;;;;;;;;;;;;;;4978451;28;19914;-24
2022/12/13 05:32:25;;;;;;;;;;;;;;;;;;4978479;28;19957;-24
2022/12/13 05:34:51;;;;;;;;;;;;;;;;;;4961144;28;20312;-24
2022/12/13 05:37:17;;;;;;;;;;;;;;;;;;4978213;28;20406;-24
2022/12/13 05:39:43;;;;;;;;;;;;;;;;;;4978471;28;19918;-24
2022/12/13 05:42:10;;;;;;;;;;;;;;;;;;4978161;28;19914;-24
2022/12/13 05:44:36;;;;;;;;;;;;;;;;;;4978368;28;19910;-24
2022/12/13 05:47:02;;;;;;;;;;;;;;;;;;4961038;28;19925;-24
2022/12/13 05:49:28;;;;;;;;;;;;;;;;;;4978500;28;19921;-24
2022/12/13 05:51:54;;;;;;;;;;;;;;;;;;4978057;28;19929;-24
2022/12/13 05:54:20;;;;;;;;;;;;;;;;;;4977734;28;20322;-24
2022/12/13 05:56:46;;;;;;;;;;;;;;;;;;4977982;28;19914;-24
2022/12/13 05:59:12;;;;;;;;;;;;;;;;;;4977935;28;19926;-24
2022/12/13 06:01:38;;;;;;;;;;;;;;;;;;4977795;28;19910;-24
2022/12/13 06:04:04;;;;;;;;;;;;;;;;;;4956769;28;19927;-24
2022/12/13 06:06:30;;;;;;;;;;;;;;;;;;4958148;29;20014;-24
2022/12/13 06:08:56;;;;;;;;;;;;;;;;;;4958216;29;19942;-24
2022/12/13 06:11:22;;;;;;;;;;;;;;;;;;4958138;29;19946;-24
2022/12/13 06:13:48;;;;;;;;;;;;;;;;;;4957948;28;20373;-23
2022/12/13 06:16:14;;;;;;;;;;;;;;;;;;4956970;29;19918;-23
2022/12/13 06:18:40;;;;;;;;;;;;;;;;;;4957974;29;20305;-23
2022/12/13 06:21:06;;;;;;;;;;;;;;;;;;4958192;29;19925;-24
2022/12/13 06:23:32;;;;;;;;;;;;;;;;;;4958044;28;19918;-23
2022/12/13 06:25:58;;;;;;;;;;;;;;;;;;4957903;29;19915;-24
2022/12/13 06:28:24;;;;;;;;;;;;;;;;;;4957999;29;19921;-24
2022/12/13 06:30:51;;;;;;;;;;;;;;;;;;4957782;29;20385;-23
2022/12/13 06:33:17;;;;;;;;;;;;;;;;;;4957528;28;19915;-23
2022/12/13 06:35:43;;;;;;;;;;;;;;;;;;4957821;29;19922;-23
2022/12/13 06:38:09;;;;;;;;;;;;;;;;;;4957938;29;19937;-23
2022/12/13 06:40:35;;;;;;;;;;;;;;;;;;4957937;29;19957;-24
2022/12/13 06:43:01;;;;;;;;;;;;;;;;;;4956270;28;19915;-23
2022/12/13 06:45:27;;;;;;;;;;;;;;;;;;4957486;29;20373;-23
2022/12/13 06:47:54;;;;;;;;;;;;;;;;;;4957084;29;19918;-23
2022/12/13 06:50:20;;;;;;;;;;;;;;;;;;4957293;29;19930;-23
2022/12/13 06:52:46;;;;;;;;;;;;;;;;;;4956376;28;19914;-23
2022/12/13 06:55:12;;;;;;;;;;;;;;;;;;4957298;29;19918;-24
2022/12/13 06:57:38;;;;;;;;;;;;;;;;;;4957218;29;20013;-24
2022/12/13 07:00:04;;;;;;;;;;;;;;;;;;4957416;29;19949;-23
2022/12/13 07:02:31;;;;;;;;;;;;;;;;;;4957285;28;19968;-24
2022/12/13 07:04:57;;;;;;;;;;;;;;;;;;4972051;28;19933;-23
2022/12/13 07:07:23;;;;;;;;;;;;;;;;;;4976644;28;20001;-24
2022/12/13 07:09:49;;;;;;;;;;;;;;;;;;4976609;28;19961;-24
2022/12/13 07:12:15;;;;;;;;;;;;;;;;;;4976187;28;19914;-24
2022/12/13 07:14:41;;;;;;;;;;;;;;;;;;4957755;28;19942;-24
2022/12/13 07:17:07;;;;;;;;;;;;;;;;;;4975184;28;19918;-24
2022/12/13 07:19:33;;;;;;;;;;;;;;;;;;4975443;28;19914;-24
2022/12/13 07:21:59;;;;;;;;;;;;;;;;;;4975417;28;19914;-24
2022/12/13 07:24:25;;;;;;;;;;;;;;;;;;4975314;28;20214;-24
2022/12/13 07:26:51;;;;;;;;;;;;;;;;;;4975542;28;19996;-24
2022/12/13 07:29:18;;;;;;;;;;;;;;;;;;4975257;28;19910;-24
2022/12/13 07:31:44;;;;;;;;;;;;;;;;;;4975246;28;19918;-24
2022/12/13 07:34:10;;;;;;;;;;;;;;;;;;4975118;28;19918;-24
2022/12/13 07:36:36;;;;;;;;;;;;;;;;;;4975365;28;19925;-24
2022/12/13 07:39:02;;;;;;;;;;;;;;;;;;4958786;28;19914;-24
2022/12/13 07:41:28;;;;;;;;;;;;;;;;;;4976132;28;19976;-24
2022/12/13 07:43:54;;;;;;;;;;;;;;;;;;4975806;28;19914;-24
2022/12/13 07:46:20;;;;;;;;;;;;;;;;;;4976157;28;19914;-23
2022/12/13 07:48:46;;;;;;;;;;;;;;;;;;4975630;28;20238;-23
2022/12/13 07:51:12;;;;;;;;;;;;;;;;;;4975721;28;19942;-23
2022/12/13 07:53:39;;;;;;;;;;;;;;;;;;4975558;28;20297;-23
2022/12/13 07:56:05;;;;;;;;;;;;;;;;;;4975924;28;19914;-24
2022/12/13 07:58:32;;;;;;;;;;;;;;;;;;4975502;28;20364;-24
2022/12/13 08:00:58;;;;;;;;;;;;;;;;;;4958613;28;19932;-24
2022/12/13 08:03:24;;;;;;;;;;;;;;;;;;4975101;28;19929;-24
2022/12/13 08:05:50;;;;;;;;;;;;;;;;;;4975589;28;19914;-24
2022/12/13 08:08:16;;;;;;;;;;;;;;;;;;4975529;28;20013;-24
2022/12/13 08:10:42;;;;;;;;;;;;;;;;;;4958317;28;19997;-23
2022/12/13 08:13:08;;;;;;;;;;;;;;;;;;4975190;28;20337;-24
2022/12/13 08:15:34;;;;;;;;;;;;;;;;;;4975517;28;19922;-23
2022/12/13 08:18:00;;;;;;;;;;;;;;;;;;4975740;28;19910;-24
2022/12/13 08:20:26;;;;;;;;;;;;;;;;;;4975624;28;19963;-24
2022/12/13 08:22:52;;;;;;;;;;;;;;;;;;4975775;28;19910;-24
2022/12/13 08:25:18;;;;;;;;;;;;;;;;;;4975375;28;19990;-24
2022/12/13 08:27:44;;;;;;;;;;;;;;;;;;4978765;28;19978;-23
2022/12/13 08:30:10;;;;;;;;;;;;;;;;;;4979556;28;19995;-24
2022/12/13 08:32:36;;;;;;;;;;;;;;;;;;4979642;28;19910;-24
2022/12/13 08:35:02;;;;;;;;;;;;;;;;;;4979665;28;19918;-23
2022/12/13 08:37:28;;;;;;;;;;;;;;;;;;4979306;28;19997;-24
2022/12/13 08:39:54;;;;;;;;;;;;;;;;;;4979202;28;20341;-24
2022/12/13 08:42:20;;;;;;;;;;;;;;;;;;4961866;28;19921;-24
2022/12/13 08:44:46;;;;;;;;;;;;;;;;;;4979570;28;19912;-24
2022/12/13 08:47:12;;;;;;;;;;;;;;;;;;4979133;28;19914;-24
2022/12/13 08:49:39;;;;;;;;;;;;;;;;;;4979451;28;19910;-24
2022/12/13 08:52:05;;;;;;;;;;;;;;;;;;4961888;28;19969;-23
2022/12/13 08:54:32;;;;;;;;;;;;;;;;;;4979052;28;19919;-23
2022/12/13 08:56:58;;;;;;;;;;;;;;;;;;4979034;28;19941;-24
2022/12/13 08:59:24;;;;;;;;;;;;;;;;;;4978904;28;19913;-24
2022/12/13 09:01:51;;;;;;;;;;;;;;;;;;4978992;28;20233;-24
2022/12/13 09:04:17;;;;;;;;;;;;;;;;;;4978544;28;19929;-24
2022/12/13 09:06:43;;;;;;;;;;;;;;;;;;4978876;28;19941;-24
2022/12/13 09:09:09;;;;;;;;;;;;;;;;;;4978630;28;19910;-24
2022/12/13 09:11:35;;;;;;;;;;;;;;;;;;4961450;28;19914;-24
2022/12/13 09:14:01;;;;;;;;;;;;;;;;;;4978458;28;19929;-23
2022/12/13 09:16:29;;;;;;;;;;;;;;;;;;4978765;28;19914;-23
2022/12/13 09:18:55;;;;;;;;;;;;;;;;;;4978987;28;19910;-24
2022/12/13 09:21:21;;;;;;;;;;;;;;;;;;4978358;28;20340;-24
2022/12/13 09:23:47;;;;;;;;;;;;;;;;;;4978709;28;19910;-23
2022/12/13 09:26:13;;;;;;;;;;;;;;;;;;4978021;28;19918;-23
2022/12/13 09:28:39;;;;;;;;;;;;;;;;;;4978084;28;20257;-23
2022/12/13 09:31:05;;;;;;;;;;;;;;;;;;4978073;28;20265;-24
2022/12/13 09:33:31;;;;;;;;;;;;;;;;;;4978765;28;19978;-23
2022/12/13 09:35:57;;;;;;;;;;;;;;;;;;4978181;28;19980;-23
2022/12/13 09:38:23;;;;;;;;;;;;;;;;;;4977754;28;20003;-24
2022/12/13 09:40:49;;;;;;;;;;;;;;;;;;4960957;28;19914;-23
2022/12/13 09:43:15;;;;;;;;;;;;;;;;;;4977557;28;20008;-23
2022/12/13 09:45:41;;;;;;;;;;;;;;;;;;4977079;28;20397;-23
2022/12/13 09:48:07;;;;;;;;;;;;;;;;;;4977436;28;19918;-24
2022/12/13 09:50:33;;;;;;;;;;;;;;;;;;4977151;28;19918;-24
2022/12/13 09:52:59;;;;;;;;;;;;;;;;;;4977259;28;20262;-24
2022/12/13 09:55:25;;;;;;;;;;;;;;;;;;4977071;28;19968;-24
2022/12/13 09:57:51;;;;;;;;;;;;;;;;;;4977052;28;20357;-24
2022/12/13 10:00:17;;;;;;;;;;;;;;;;;;4977047;28;20016;-24
2022/12/13 10:02:43;;;;;;;;;;;;;;;;;;4976851;28;20019;-23
2022/12/13 10:05:09;;;;;;;;;;;;;;;;;;4976732;28;20272;-24
2022/12/13 10:07:35;;;;;;;;;;;;;;;;;;4959665;28;19914;-25
2022/12/13 10:10:01;;;;;;;;;;;;;;;;;;4976744;28;20254;-23
2022/12/13 10:12:27;;;;;;;;;;;;;;;;;;4976899;28;19976;-24
2022/12/13 10:14:53;;;;;;;;;;;;;;;;;;4976605;28;19982;-25
2022/12/13 10:17:19;;;;;;;;;;;;;;;;;;4959586;28;19976;-25
2022/12/13 10:19:45;;;;;;;;;;;;;;;;;;4976540;28;19914;-24
2022/12/13 10:22:11;;;;;;;;;;;;;;;;;;4976460;28;19989;-25
2022/12/13 10:24:37;;;;;;;;;;;;;;;;;;4976965;28;19922;-24
2022/12/13 10:27:04;;;;;;;;;;;;;;;;;;4959867;28;19925;-24
2022/12/13 10:29:30;;;;;;;;;;;;;;;;;;4977231;28;20285;-24
2022/12/13 10:31:56;;;;;;;;;;;;;;;;;;4960144;28;19914;-23
2022/12/13 10:34:22;;;;;;;;;;;;;;;;;;4977611;28;19921;-24
2022/12/13 10:36:48;;;;;;;;;;;;;;;;;;4977107;28;19925;-23
2022/12/13 10:39:14;;;;;;;;;;;;;;;;;;4977438;28;19914;-24
2022/12/13 10:41:40;;;;;;;;;;;;;;;;;;4977418;28;20000;-24
2022/12/13 10:44:06;;;;;;;;;;;;;;;;;;4977016;28;19975;-24
2022/12/13 10:46:32;;;;;;;;;;;;;;;;;;4976946;28;19915;-24
2022/12/13 10:48:58;;;;;;;;;;;;;;;;;;4977303;28;19911;-24
2022/12/13 10:51:24;;;;;;;;;;;;;;;;;;4958805;28;20016;-24
2022/12/13 10:53:50;;;;;;;;;;;;;;;;;;4976766;28;20435;-22
2022/12/13 10:56:16;;;;;;;;;;;;;;;;;;4977039;28;20369;-24
2022/12/13 10:58:42;;;;;;;;;;;;;;;;;;4977014;28;19917;-25
2022/12/13 11:01:08;;;;;;;;;;;;;;;;;;4976582;28;20113;-24
2022/12/13 11:03:34;;;;;;;;;;;;;;;;;;4976629;28;19996;-25
2022/12/13 11:06:00;;;;;;;;;;;;;;;;;;4976583;28;19914;-25
2022/12/13 11:08:26;;;;;;;;;;;;;;;;;;4976660;28;19910;-24
2022/12/13 11:11:00;;;;;;;;;;;;;;;;;;5072632;28;19913;-24
2022/12/13 11:13:26;;;;;;;;;;;;;;;;;;5070627;28;19912;-25
2022/12/13 11:15:52;;;;;;;;;;;;;;;;;;5071741;28;19952;-27
2022/12/13 11:18:18;;;;;;;;;;;;;;;;;;5070801;28;19928;-27
2022/12/13 11:20:44;;;;;;;;;;;;;;;;;;5071929;28;19944;-24
2022/12/13 11:23:10;;;;;;;;;;;;;;;;;;5071799;28;20298;-23
2022/12/13 11:25:36;;;;;;;;;;;;;;;;;;5071713;28;19912;-25
2022/12/13 11:28:02;;;;;;;;;;;;;;;;;;5071519;28;20007;-23
2022/12/13 11:30:29;;;;;;;;;;;;;;;;;;5071588;28;19931;-25
2022/12/13 11:32:55;;;;;;;;;;;;;;;;;;5071373;28;19909;-24
2022/12/13 11:35:21;;;;;;;;;;;;;;;;;;5071190;28;20385;-29
2022/12/13 11:37:47;;;;;;;;;;;;;;;;;;5071469;28;19962;-25
2022/12/13 11:40:14;;;;;;;;;;;;;;;;;;5071423;28;19945;-23
2022/12/13 11:42:41;;;;;;;;;;;;;;;;;;5070954;28;19913;-27
2022/12/13 11:45:07;;;;;;;;;;;;;;;;;;5071099;28;20298;-25
2022/12/13 11:47:33;;;;;;;;;;;;;;;;;;5070772;28;19909;-26
2022/12/13 11:49:59;;;;;;;;;;;;;;;;;;5070690;28;19916;-26
2022/12/13 11:52:25;;;;;;;;;;;;;;;;;;5070572;28;19923;-28
2022/12/13 11:54:51;;;;;;;;;;;;;;;;;;5070971;28;19934;-26
2022/12/13 11:57:17;;;;;;;;;;;;;;;;;;5070086;28;19912;-26
2022/12/13 11:59:43;;;;;;;;;;;;;;;;;;5070065;28;20265;-23
2022/12/13 12:02:09;;;;;;;;;;;;;;;;;;5069993;28;19920;-30
2022/12/13 12:04:35;;;;;;;;;;;;;;;;;;5070051;28;19912;-30
2022/12/13 12:07:01;;;;;;;;;;;;;;;;;;5069857;28;19977;-25
2022/12/13 12:09:27;;;;;;;;;;;;;;;;;;5077424;28;20000;-28
2022/12/13 12:11:55;;;;;;;;;;;;;;;;;;5090102;28;20001;-25
2022/12/13 12:14:21;;;;;;;;;;;;;;;;;;5090201;28;20370;-25
2022/12/13 12:16:47;;;;;;;;;;;;;;;;;;5090089;28;20018;-25
2022/12/13 12:19:13;;;;;;;;;;;;;;;;;;5090057;28;19913;-24
2022/12/13 12:21:39;;;;;;;;;;;;;;;;;;5080295;28;19926;-23
2022/12/13 12:24:05;;;;;;;;;;;;;;;;;;5076336;28;20006;-29
2022/12/13 12:26:31;;;;;;;;;;;;;;;;;;5076420;28;19920;-27
2022/12/13 12:28:57;;;;;;;;;;;;;;;;;;5076578;28;20346;-28
2022/12/13 12:31:23;;;;;;;;;;;;;;;;;;5076538;28;19951;-27
2022/12/13 12:33:49;;;;;;;;;;;;;;;;;;5076298;28;20271;-24
2022/12/13 12:36:15;;;;;;;;;;;;;;;;;;5076310;28;19919;-28
2022/12/13 12:38:43;;;;;;;;;;;;;;;;;;5076150;28;20370;-27
2022/12/13 12:41:09;;;;;;;;;;;;;;;;;;5076212;28;19912;-27
2022/12/13 12:43:36;;;;;;;;;;;;;;;;;;5058359;28;20361;-28
2022/12/13 12:46:02;;;;;;;;;;;;;;;;;;5076414;28;19912;-31
2022/12/13 12:48:28;;;;;;;;;;;;;;;;;;5076263;28;20266;-29
2022/12/13 12:50:54;;;;;;;;;;;;;;;;;;5076506;28;19916;-25
2022/12/13 12:53:20;;;;;;;;;;;;;;;;;;5075845;28;20378;-25
2022/12/13 12:55:48;;;;;;;;;;;;;;;;;;5076190;28;20017;-29
2022/12/13 12:58:14;;;;;;;;;;;;;;;;;;5076645;28;19914;-26
2022/12/13 13:00:40;;;;;;;;;;;;;;;;;;5058661;28;20301;-26
2022/12/13 13:03:06;;;;;;;;;;;;;;;;;;5076576;28;19977;-24
2022/12/13 13:05:32;;;;;;;;;;;;;;;;;;5058692;28;20344;-27
2022/12/13 13:07:58;;;;;;;;;;;;;;;;;;5076182;28;19909;-26
2022/12/13 13:10:24;;;;;;;;;;;;;;;;;;5075778;28;19920;-25
2022/12/13 13:12:51;;;;;;;;;;;;;;;;;;5076380;28;19912;-28
2022/12/13 13:15:17;;;;;;;;;;;;;;;;;;5076482;28;20270;-26
2022/12/13 13:17:43;;;;;;;;;;;;;;;;;;5076084;28;20003;-28
2022/12/13 13:20:09;;;;;;;;;;;;;;;;;;5075906;28;19972;-29
2022/12/13 13:22:35;;;;;;;;;;;;;;;;;;5075908;28;19908;-28
2022/12/13 13:25:01;;;;;;;;;;;;;;;;;;5075804;28;19912;-25
2022/12/13 13:27:28;;;;;;;;;;;;;;;;;;5075965;28;19937;-27
2022/12/13 13:29:54;;;;;;;;;;;;;;;;;;5075831;28;20014;-27
2022/12/13 13:32:20;;;;;;;;;;;;;;;;;;5074993;28;19912;-25
2022/12/13 13:34:46;;;;;;;;;;;;;;;;;;5075530;28;20378;-27
2022/12/13 13:37:12;;;;;;;;;;;;;;;;;;5075826;28;19981;-27
2022/12/13 13:39:38;;;;;;;;;;;;;;;;;;5075390;28;19913;-25
2022/12/13 13:42:04;;;;;;;;;;;;;;;;;;5057651;28;20292;-28
2022/12/13 13:44:30;;;;;;;;;;;;;;;;;;5075540;28;20240;-26
2022/12/13 13:46:56;;;;;;;;;;;;;;;;;;5075635;28;19966;-27
2022/12/13 13:49:24;;;;;;;;;;;;;;;;;;5075279;28;19916;-25
2022/12/13 13:51:50;;;;;;;;;;;;;;;;;;5075687;28;19919;-26
2022/12/13 13:54:16;;;;;;;;;;;;;;;;;;5075224;28;19912;-28
2022/12/13 13:56:43;;;;;;;;;;;;;;;;;;5075207;28;20216;-26
2022/12/13 13:59:09;;;;;;;;;;;;;;;;;;5075390;28;19916;-28
2022/12/13 14:01:36;;;;;;;;;;;;;;;;;;5075199;28;19917;-26
2022/12/13 14:04:02;;;;;;;;;;;;;;;;;;5074816;28;19923;-25
2022/12/13 14:06:28;;;;;;;;;;;;;;;;;;5075169;28;19913;-24
2022/12/13 14:08:54;;;;;;;;;;;;;;;;;;5075012;28;20347;-28
2022/12/13 14:11:20;;;;;;;;;;;;;;;;;;5075237;28;19912;-29
2022/12/13 14:13:47;;;;;;;;;;;;;;;;;;5075005;28;19908;-27
2022/12/13 14:16:13;;;;;;;;;;;;;;;;;;5075157;28;19920;-26
2022/12/13 14:18:39;;;;;;;;;;;;;;;;;;5074989;28;19982;-27
2022/12/13 14:21:05;;;;;;;;;;;;;;;;;;5074837;28;19913;-27
2022/12/13 14:23:31;;;;;;;;;;;;;;;;;;5075122;28;19920;-25
2022/12/13 14:25:57;;;;;;;;;;;;;;;;;;5074928;28;19995;-25
2022/12/13 14:28:23;;;;;;;;;;;;;;;;;;5074846;28;19959;-33
2022/12/13 14:30:49;;;;;;;;;;;;;;;;;;5074642;28;19917;-27
2022/12/13 14:33:15;;;;;;;;;;;;;;;;;;5074483;28;19920;-26
2022/12/13 14:35:42;;;;;;;;;;;;;;;;;;5074948;28;20020;-26
2022/12/13 14:38:08;;;;;;;;;;;;;;;;;;5074813;28;19920;-27
2022/12/13 14:40:34;;;;;;;;;;;;;;;;;;5074174;28;19965;-26
2022/12/13 14:43:00;;;;;;;;;;;;;;;;;;5074397;28;19909;-30
2022/12/13 14:45:28;;;;;;;;;;;;;;;;;;5074183;28;19913;-28
2022/12/13 14:47:54;;;;;;;;;;;;;;;;;;5074379;28;20315;-27
2022/12/13 14:50:20;;;;;;;;;;;;;;;;;;5074444;28;19966;-27
2022/12/13 14:52:46;;;;;;;;;;;;;;;;;;5074332;28;19908;-29
2022/12/13 14:55:12;;;;;;;;;;;;;;;;;;5056769;28;20438;-31
2022/12/13 14:57:38;;;;;;;;;;;;;;;;;;5074810;28;19952;-30
2022/12/13 15:00:04;;;;;;;;;;;;;;;;;;5074625;28;19912;-24
2022/12/13 15:02:31;;;;;;;;;;;;;;;;;;5074405;28;20406;-29
2022/12/13 15:04:57;;;;;;;;;;;;;;;;;;5074053;28;19916;-24
2022/12/13 15:07:23;;;;;;;;;;;;;;;;;;5074142;28;20404;-26
2022/12/13 15:09:49;;;;;;;;;;;;;;;;;;5056251;28;19966;-24
2022/12/13 15:12:15;;;;;;;;;;;;;;;;;;5074048;28;19912;-27
2022/12/13 15:14:41;;;;;;;;;;;;;;;;;;5074360;28;19924;-26
2022/12/13 15:17:07;;;;;;;;;;;;;;;;;;5074394;28;20243;-25
2022/12/13 15:19:34;;;;;;;;;;;;;;;;;;5074070;28;19916;-27
2022/12/13 15:22:00;;;;;;;;;;;;;;;;;;5074298;28;19923;-24
2022/12/13 15:24:26;;;;;;;;;;;;;;;;;;5074083;28;20251;-25
2022/12/13 15:26:52;;;;;;;;;;;;;;;;;;5074080;28;19970;-29
2022/12/13 15:29:18;;;;;;;;;;;;;;;;;;5073768;28;19920;-28
2022/12/13 15:31:44;;;;;;;;;;;;;;;;;;5073589;28;19953;-25
2022/12/13 15:34:10;;;;;;;;;;;;;;;;;;5074004;28;19916;-28
2022/12/13 15:36:36;;;;;;;;;;;;;;;;;;5073926;28;19920;-24
2022/12/13 15:39:02;;;;;;;;;;;;;;;;;;5056284;28;19920;-26
2022/12/13 15:41:28;;;;;;;;;;;;;;;;;;5074002;28;19912;-28
2022/12/13 15:43:54;;;;;;;;;;;;;;;;;;5056172;28;19913;-25
2022/12/13 15:46:20;;;;;;;;;;;;;;;;;;5073985;28;19961;-28
2022/12/13 15:48:46;;;;;;;;;;;;;;;;;;5073634;28;19924;-27
2022/12/13 15:51:12;;;;;;;;;;;;;;;;;;5073800;28;19915;-26
2022/12/13 15:53:38;;;;;;;;;;;;;;;;;;5056044;28;19958;-24
2022/12/13 15:56:04;;;;;;;;;;;;;;;;;;5074499;28;19912;-28
2022/12/13 15:58:30;;;;;;;;;;;;;;;;;;5077279;28;19908;-26
2022/12/13 16:00:57;;;;;;;;;;;;;;;;;;5077243;28;19912;-26
2022/12/13 16:03:23;;;;;;;;;;;;;;;;;;5077309;28;19908;-31
2022/12/13 16:05:49;;;;;;;;;;;;;;;;;;5077287;28;19935;-31
2022/12/13 16:08:15;;;;;;;;;;;;;;;;;;5077229;28;19923;-27
2022/12/13 16:10:41;;;;;;;;;;;;;;;;;;5058866;28;19924;-32
2022/12/13 16:13:07;;;;;;;;;;;;;;;;;;5076573;28;19915;-29
2022/12/13 16:15:33;;;;;;;;;;;;;;;;;;5076571;28;19913;-33
2022/12/13 16:17:59;;;;;;;;;;;;;;;;;;5076686;28;19944;-31
2022/12/13 16:20:26;;;;;;;;;;;;;;;;;;5076341;28;19913;-27
2022/12/13 16:22:53;;;;;;;;;;;;;;;;;;5077056;28;20323;-28
2022/12/13 16:25:19;;;;;;;;;;;;;;;;;;5076215;28;19912;-28
2022/12/13 16:27:45;;;;;;;;;;;;;;;;;;5076125;28;19909;-29
2022/12/13 16:30:11;;;;;;;;;;;;;;;;;;5076504;28;19986;-31
2022/12/13 16:32:37;;;;;;;;;;;;;;;;;;5058184;28;19908;-30
2022/12/13 16:35:03;;;;;;;;;;;;;;;;;;5075916;28;20346;-34
2022/12/13 16:37:29;;;;;;;;;;;;;;;;;;5076600;28;19944;-25
2022/12/13 16:39:55;;;;;;;;;;;;;;;;;;5076234;28;20295;-30
2022/12/13 16:42:21;;;;;;;;;;;;;;;;;;5059234;28;20254;-29
2022/12/13 16:44:47;;;;;;;;;;;;;;;;;;5076244;28;20287;-27